Time;durP1;ratioP1;P1;durP2;ratioP2;P2;SDS_P1;SDS_P2;PMS_P1;PMS_P2;Temp;Humidity;BMP_temperature;BMP_pressure;BME280_temperature;BME280_humidity;BME280_pressure;Samples;Min_cycle;Max_cycle;Signal;HPM_P1;HPM_P2
2023/09/08 00:00:50;;;;;;;8.35;4.88;;;;;;;20.04;64.01;102077.91;7396221;19;20019;-62
2023/09/08 00:03:17;;;;;;;7.20;4.68;;;;;;;20.06;63.74;102075.91;7394587;19;20373;-64
2023/09/08 00:05:45;;;;;;;8.65;5.20;;;;;;;20.06;64.32;102075.91;7395955;19;20022;-64
2023/09/08 00:08:12;;;;;;;10.82;5.40;;;;;;;19.84;64.87;102074.38;7395419;19;20350;-64
2023/09/08 00:10:40;;;;;;;11.95;5.25;;;;;;;19.74;65.23;102078.03;7395530;19;20010;-64
2023/09/08 00:13:08;;;;;;;12.50;4.90;;;;;;;19.90;64.68;102067.56;7394219;19;20368;-64
2023/09/08 00:15:37;;;;;;;7.60;4.78;;;;;;;19.95;64.41;102073.34;7395375;19;20435;-65
2023/09/08 00:18:04;;;;;;;7.85;5.15;;;;;;;19.69;64.71;102070.41;7392151;19;20018;-64
2023/09/08 00:20:32;;;;;;;9.70;5.60;;;;;;;19.66;65.34;102068.00;7394342;19;20022;-64
2023/09/08 00:22:59;;;;;;;8.73;5.60;;;;;;;19.51;64.48;102066.66;7394288;19;20102;-64
2023/09/08 00:25:27;;;;;;;9.23;5.38;;;;;;;19.46;66.39;102069.78;7391909;19;20010;-64
2023/09/08 00:27:54;;;;;;;9.52;5.15;;;;;;;19.66;65.96;102068.84;7395565;19;20018;-65
2023/09/08 00:30:22;;;;;;;10.60;5.43;;;;;;;19.71;65.04;102061.19;7397497;19;20471;-65
2023/09/08 00:32:49;;;;;;;10.18;5.55;;;;;;;19.38;65.81;102066.91;7394502;19;20019;-64
2023/09/08 00:35:17;;;;;;;10.30;5.60;;;;;;;19.23;66.19;102069.13;7395263;19;20015;-64
2023/09/08 00:37:45;;;;;;;8.73;5.25;;;;;;;19.06;66.94;102065.28;7394071;19;20022;-64
2023/09/08 00:40:12;;;;;;;10.45;5.45;;;;;;;19.24;66.41;102070.84;7393715;19;20402;-64
2023/09/08 00:42:40;;;;;;;8.52;5.50;;;;;;;19.00;66.96;102071.19;7395226;19;20022;-65
2023/09/08 00:45:07;;;;;;;9.88;5.70;;;;;;;18.88;67.36;102066.91;7392904;19;20043;-64
2023/09/08 00:47:35;;;;;;;9.85;5.28;;;;;;;18.98;67.14;102073.16;7395480;19;20138;-64
2023/09/08 00:50:04;;;;;;;11.00;5.57;;;;;;;19.17;66.15;102064.31;7394733;19;20022;-64
2023/09/08 00:52:33;;;;;;;8.98;5.35;;;;;;;19.34;65.96;102063.63;7394995;19;20023;-64
2023/09/08 00:55:01;;;;;;;8.02;5.65;;;;;;;19.38;65.91;102066.91;7396085;19;20430;-64
2023/09/08 00:57:29;;;;;;;9.77;5.70;;;;;;;19.36;66.38;102071.59;7396389;19;20014;-64
2023/09/08 00:59:56;;;;;;;10.45;5.72;;;;;;;19.30;66.04;102072.97;7396170;19;20015;-65
2023/09/08 01:02:23;;;;;;;7.95;5.38;;;;;;;18.86;67.65;102064.34;7395813;19;20022;-64
2023/09/08 01:04:51;;;;;;;8.63;5.25;;;;;;;18.92;67.58;102063.81;7392726;19;20014;-64
2023/09/08 01:07:19;;;;;;;8.73;5.30;;;;;;;19.10;66.85;102055.09;7392847;19;20032;-64
2023/09/08 01:09:47;;;;;;;9.30;6.32;;;;;;;19.18;66.20;102057.97;7394461;19;20039;-64
2023/09/08 01:12:15;;;;;;;10.25;6.20;;;;;;;19.18;66.21;102058.81;7392929;19;20015;-64
2023/09/08 01:14:43;;;;;;;9.27;5.38;;;;;;;19.19;66.15;102054.28;7389576;19;20015;-64
2023/09/08 01:17:12;;;;;;;9.52;5.35;;;;;;;19.23;65.97;102053.88;7390642;19;20037;-64
2023/09/08 01:19:43;;;;;;;7.32;5.00;;;;;;;19.23;66.30;102053.00;7393900;19;20014;-64
2023/09/08 01:22:29;;;;;;;9.15;5.80;;;;;;;18.92;67.23;102054.91;7392043;19;20015;-64
2023/09/08 01:25:12;;;;;;;9.10;5.30;;;;;;;18.66;67.87;102054.47;7393788;19;20358;-64
2023/09/08 01:27:46;;;;;;;9.70;5.50;;;;;;;18.56;67.95;102064.31;7391440;19;20014;-64
2023/09/08 01:30:15;;;;;;;9.50;5.45;;;;;;;18.69;67.54;102052.38;7388321;19;20028;-64
2023/09/08 01:32:44;;;;;;;8.85;5.28;;;;;;;18.77;67.56;102053.56;7392046;19;20053;-64
2023/09/08 01:35:12;;;;;;;9.93;5.57;;;;;;;18.93;67.25;102044.03;7389895;19;20039;-64
2023/09/08 01:37:48;;;;;;;8.15;5.55;;;;;;;19.01;66.58;102048.72;7391924;19;20022;-64
2023/09/08 01:40:15;;;;;;;9.95;5.15;;;;;;;19.06;66.57;102051.84;7392941;19;20413;-64
2023/09/08 01:42:43;;;;;;;10.45;5.40;;;;;;;18.91;66.80;102046.00;7392617;19;20043;-64
2023/09/08 01:45:11;;;;;;;8.27;5.18;;;;;;;18.92;67.10;102036.09;7392639;19;20014;-64
2023/09/08 01:47:38;;;;;;;11.15;5.68;;;;;;;18.95;66.85;102036.69;7392573;19;20082;-64
2023/09/08 01:50:06;;;;;;;9.57;5.47;;;;;;;18.98;66.59;102039.09;7392415;19;20022;-64
2023/09/08 01:52:33;;;;;;;8.75;5.20;;;;;;;18.91;66.47;102034.41;7391911;19;20055;-64
2023/09/08 01:55:01;;;;;;;11.98;6.13;;;;;;;18.90;66.58;102033.56;7390518;19;20086;-64
2023/09/08 01:57:28;;;;;;;8.95;5.32;;;;;;;18.90;66.38;102033.56;7391920;19;20026;-64
2023/09/08 01:59:56;;;;;;;8.18;5.05;;;;;;;18.93;66.24;102037.81;7392300;19;20047;-64
2023/09/08 02:02:23;;;;;;;10.00;6.10;;;;;;;18.78;66.51;102037.34;7392151;19;20082;-64
2023/09/08 02:04:51;;;;;;;9.93;5.78;;;;;;;18.57;67.41;102031.13;7390162;19;20019;-64
2023/09/08 02:07:18;;;;;;;10.35;6.10;;;;;;;18.71;67.28;102030.81;7391750;19;20014;-64
2023/09/08 02:09:46;;;;;;;9.68;5.57;;;;;;;18.70;67.26;102034.47;7392157;19;20010;-64
2023/09/08 02:12:13;;;;;;;8.48;5.28;;;;;;;18.50;67.88;102031.66;7392215;19;20018;-64
2023/09/08 02:14:41;;;;;;;11.27;5.60;;;;;;;18.50;67.99;102042.38;7390140;19;20025;-64
2023/09/08 02:17:09;;;;;;;10.50;5.68;;;;;;;18.48;68.38;102038.16;7390117;19;20051;-64
2023/09/08 02:19:37;;;;;;;9.55;5.90;;;;;;;18.51;68.20;102029.84;7393730;19;20037;-64
2023/09/08 02:22:04;;;;;;;8.45;5.50;;;;;;;18.56;67.95;102038.34;7391920;19;20027;-64
2023/09/08 02:24:31;;;;;;;9.60;5.53;;;;;;;18.61;67.73;102029.88;7390061;19;20488;-64
2023/09/08 02:26:59;;;;;;;10.38;5.38;;;;;;;18.67;67.60;102034.72;7391713;19;20032;-64
2023/09/08 02:29:26;;;;;;;8.27;5.60;;;;;;;18.50;67.82;102036.19;7392021;19;20026;-64
2023/09/08 02:31:54;;;;;;;9.82;5.93;;;;;;;18.30;68.13;102037.91;7391091;19;20027;-64
2023/09/08 02:34:21;;;;;;;10.07;5.80;;;;;;;18.21;68.36;102044.06;7389132;19;20021;-64
2023/09/08 02:37:47;;;;;;;7.47;5.20;;;;;;;18.32;67.92;102043.16;7427090;19;20321;-63
2023/09/08 02:40:14;;;;;;;9.82;5.43;;;;;;;18.37;67.55;102039.06;7427810;19;20869;-63
2023/09/08 02:42:42;;;;;;;9.18;5.50;;;;;;;18.36;67.52;102036.53;7427634;19;20011;-63
2023/09/08 02:45:10;;;;;;;9.55;5.10;;;;;;;18.38;67.22;102032.72;7427102;19;20038;-63
2023/09/08 02:47:37;;;;;;;9.20;5.35;;;;;;;18.37;67.12;102028.34;7425791;19;20022;-63
2023/09/08 02:50:05;;;;;;;7.53;5.20;;;;;;;18.29;67.40;102027.31;7426068;19;20022;-63
2023/09/08 02:52:33;;;;;;;10.05;5.97;;;;;;;18.33;67.53;102032.28;7427254;19;20034;-63
2023/09/08 02:55:01;;;;;;;8.75;5.05;;;;;;;18.29;67.37;102033.53;7427649;19;20021;-63
2023/09/08 02:57:28;;;;;;;12.38;5.80;;;;;;;18.08;67.85;102024.63;7424874;19;20022;-63
2023/09/08 02:59:56;;;;;;;9.00;5.35;;;;;;;18.02;68.38;102021.50;7428082;19;20018;-63
2023/09/08 03:02:25;;;;;;;8.48;5.05;;;;;;;18.12;68.32;102021.56;7425436;19;20025;-64
2023/09/08 03:04:53;;;;;;;8.93;5.50;;;;;;;18.21;67.62;102022.63;7423886;19;20014;-64
2023/09/08 03:07:20;;;;;;;9.05;5.47;;;;;;;18.25;67.48;102024.91;7427118;19;20022;-63
2023/09/08 03:09:48;;;;;;;10.55;5.80;;;;;;;18.17;67.34;102015.81;7427099;19;20043;-63
2023/09/08 03:12:15;;;;;;;8.57;5.65;;;;;;;17.83;68.63;102015.16;7425219;19;20011;-63
2023/09/08 03:14:43;;;;;;;9.82;5.18;;;;;;;17.99;68.30;102012.88;7423772;19;20025;-63
2023/09/08 03:17:12;;;;;;;7.43;5.30;;;;;;;18.12;67.80;102005.47;7424079;19;20022;-63
2023/09/08 03:19:39;;;;;;;8.82;6.30;;;;;;;17.95;67.78;102009.59;7426796;19;20015;-63
2023/09/08 03:22:07;;;;;;;8.60;5.60;;;;;;;17.70;69.20;102008.09;7426735;19;20026;-63
2023/09/08 03:24:34;;;;;;;10.00;5.90;;;;;;;17.59;69.28;102010.84;7423485;19;20372;-63
2023/09/08 03:27:02;;;;;;;9.82;6.07;;;;;;;17.46;70.10;102007.47;7425846;19;20368;-63
2023/09/08 03:29:30;;;;;;;10.95;6.10;;;;;;;17.43;70.09;102002.38;7425909;19;20014;-63
2023/09/08 03:31:57;;;;;;;9.50;5.60;;;;;;;17.58;70.16;102003.75;7425962;19;20024;-63
2023/09/08 03:34:24;;;;;;;8.85;5.85;;;;;;;17.87;69.03;102005.88;7423020;19;20019;-63
2023/09/08 03:36:53;;;;;;;8.98;5.80;;;;;;;17.73;69.13;101999.81;7424529;19;20026;-63
2023/09/08 03:39:21;;;;;;;8.82;5.57;;;;;;;17.68;69.68;102002.03;7425793;19;20010;-63
2023/09/08 03:41:48;;;;;;;8.05;5.53;;;;;;;17.80;69.24;102002.00;7425738;19;20487;-63
2023/09/08 03:44:16;;;;;;;8.77;5.22;;;;;;;17.83;68.72;102002.59;7423422;19;20042;-63
2023/09/08 03:46:43;;;;;;;8.18;4.88;;;;;;;17.88;68.74;101999.53;7425841;19;20022;-63
2023/09/08 03:49:10;;;;;;;10.57;5.82;;;;;;;17.92;68.78;101992.91;7396049;19;20026;-63
2023/09/08 03:51:38;;;;;;;9.25;5.95;;;;;;;17.88;68.88;101996.84;7395614;19;20026;-63
2023/09/08 03:54:05;;;;;;;9.52;5.68;;;;;;;17.86;68.69;101996.09;7394474;19;20067;-63
2023/09/08 03:56:33;;;;;;;8.20;5.72;;;;;;;17.85;69.03;102003.31;7394040;19;20337;-63
2023/09/08 03:59:00;;;;;;;9.43;5.78;;;;;;;17.79;68.80;101995.81;7395337;19;20019;-63
2023/09/08 04:01:28;;;;;;;10.20;6.07;;;;;;;17.82;68.64;101990.19;7395031;19;20019;-63
2023/09/08 04:03:56;;;;;;;9.07;5.63;;;;;;;17.88;68.28;101994.16;7394506;19;20042;-63
2023/09/08 04:06:24;;;;;;;10.65;5.60;;;;;;;17.89;68.59;101993.19;7396575;19;20039;-63
2023/09/08 04:08:51;;;;;;;10.80;6.20;;;;;;;17.84;68.35;101992.72;7396299;19;20487;-63
2023/09/08 04:11:19;;;;;;;9.98;6.13;;;;;;;17.84;68.41;101996.25;7396179;19;20014;-63
2023/09/08 04:13:46;;;;;;;9.50;6.13;;;;;;;17.85;68.37;101997.09;7394390;19;20755;-63
2023/09/08 04:16:14;;;;;;;9.60;6.20;;;;;;;17.75;68.54;101992.53;7395349;19;20014;-63
2023/09/08 04:18:41;;;;;;;9.55;6.18;;;;;;;17.77;68.50;101982.50;7396292;19;20348;-63
2023/09/08 04:21:09;;;;;;;10.45;5.72;;;;;;;17.78;68.26;101986.91;7395995;19;20133;-63
2023/09/08 04:23:36;;;;;;;8.73;5.93;;;;;;;17.74;68.40;101984.56;7394481;19;20027;-63
2023/09/08 04:26:04;;;;;;;11.68;6.28;;;;;;;17.59;68.89;101989.41;7394339;19;20074;-64
2023/09/08 04:28:31;;;;;;;11.73;6.25;;;;;;;17.68;68.99;101987.78;7395729;19;20085;-63
2023/09/08 04:30:59;;;;;;;10.63;6.65;;;;;;;17.70;68.52;101980.44;7395277;19;20015;-63
2023/09/08 04:33:28;;;;;;;10.00;5.93;;;;;;;17.63;68.96;101973.91;7394165;19;20496;-63
2023/09/08 04:35:56;;;;;;;9.70;6.10;;;;;;;17.67;69.00;101976.22;7397936;19;20018;-63
2023/09/08 04:38:23;;;;;;;10.07;5.95;;;;;;;17.72;68.56;101968.63;7395493;19;20445;-63
2023/09/08 04:40:51;;;;;;;11.05;5.90;;;;;;;17.71;68.76;101969.63;7394546;19;20011;-63
2023/09/08 04:43:18;;;;;;;12.10;6.35;;;;;;;17.69;68.43;101966.22;7393495;19;20035;-64
2023/09/08 04:45:45;;;;;;;11.15;6.25;;;;;;;17.70;68.46;101967.06;7393949;19;20022;-64
2023/09/08 04:48:13;;;;;;;10.68;6.70;;;;;;;17.70;68.74;101975.94;7394032;19;20423;-64
2023/09/08 04:50:40;;;;;;;15.05;6.55;;;;;;;17.77;68.57;101969.13;7395139;19;20022;-65
2023/09/08 04:53:08;;;;;;;10.93;6.57;;;;;;;17.77;68.59;101966.44;7393941;19;20649;-64
2023/09/08 04:55:35;;;;;;;10.52;6.40;;;;;;;17.72;68.79;101968.63;7393008;19;20026;-64
2023/09/08 04:58:03;;;;;;;9.85;6.13;;;;;;;17.68;68.87;101972.56;7391811;19;20046;-64
2023/09/08 05:00:30;;;;;;;10.05;6.78;;;;;;;17.73;68.50;101967.66;7392824;19;20026;-64
2023/09/08 05:02:58;;;;;;;12.30;6.70;;;;;;;17.75;68.70;101973.78;7394253;19;20428;-64
2023/09/08 05:05:26;;;;;;;12.02;6.35;;;;;;;17.69;69.05;101970.72;7394033;19;20459;-64
2023/09/08 05:07:56;;;;;;;8.95;5.72;;;;;;;17.76;69.00;101974.63;7395965;19;20356;-64
2023/09/08 05:10:24;;;;;;;9.45;6.18;;;;;;;17.73;68.85;101973.00;7395666;19;20445;-64
2023/09/08 05:12:52;;;;;;;10.52;6.00;;;;;;;17.76;68.92;101971.94;7394816;19;20023;-65
2023/09/08 05:15:21;;;;;;;11.00;6.50;;;;;;;17.71;69.31;101974.13;7393273;19;20386;-65
2023/09/08 05:17:48;;;;;;;10.45;6.30;;;;;;;17.68;69.45;101980.59;7393254;19;20046;-65
2023/09/08 05:20:16;;;;;;;11.20;6.30;;;;;;;17.41;70.41;101977.56;7396388;19;20085;-65
2023/09/08 05:22:44;;;;;;;10.88;6.32;;;;;;;17.44;70.58;101977.31;7394946;19;20014;-65
2023/09/08 05:25:11;;;;;;;9.65;5.97;;;;;;;17.44;70.26;101979.97;7395405;19;20058;-65
2023/09/08 05:27:39;;;;;;;11.73;7.13;;;;;;;17.23;71.31;101982.59;7395728;19;20014;-65
2023/09/08 05:30:07;;;;;;;11.68;7.30;;;;;;;17.22;71.24;101979.06;7395223;19;20018;-65
2023/09/08 05:32:35;;;;;;;10.38;6.85;;;;;;;17.26;71.01;101979.66;7393228;19;20042;-64
2023/09/08 05:35:02;;;;;;;14.32;6.72;;;;;;;17.25;71.27;101970.78;7391883;19;20025;-64
2023/09/08 05:37:30;;;;;;;10.77;5.85;;;;;;;17.48;70.90;101974.22;7393082;19;20019;-64
2023/09/08 05:39:57;;;;;;;13.13;6.63;;;;;;;17.30;71.20;101978.44;7392899;19;20085;-65
2023/09/08 05:42:25;;;;;;;10.38;6.60;;;;;;;17.21;71.68;101969.34;7391653;19;20017;-65
2023/09/08 05:44:54;;;;;;;9.68;6.13;;;;;;;17.48;71.08;101968.03;7389678;19;20050;-65
2023/09/08 05:47:22;;;;;;;10.00;6.28;;;;;;;17.36;71.60;101971.72;7390264;19;20039;-65
2023/09/08 05:49:49;;;;;;;16.58;6.60;;;;;;;17.44;71.70;101971.94;7391878;19;20495;-65
2023/09/08 05:52:16;;;;;;;11.77;6.55;;;;;;;17.35;71.96;101973.53;7393075;19;20010;-65
2023/09/08 05:54:44;;;;;;;12.70;7.53;;;;;;;17.28;72.47;101970.53;7392419;19;20637;-65
2023/09/08 05:57:11;;;;;;;13.70;7.28;;;;;;;17.38;72.21;101969.78;7393129;19;20074;-65
2023/09/08 05:59:39;;;;;;;11.10;5.93;;;;;;;17.48;71.84;101966.19;7393132;19;20018;-65
2023/09/08 06:02:06;;;;;;;12.13;6.85;;;;;;;17.52;71.83;101967.63;7393473;19;20018;-65
2023/09/08 06:04:34;;;;;;;11.90;6.50;;;;;;;17.70;71.29;101967.06;7390901;19;20019;-64
2023/09/08 06:07:01;;;;;;;11.25;6.57;;;;;;;17.91;70.08;101967.94;7393164;19;20018;-64
2023/09/08 06:09:29;;;;;;;11.15;6.13;;;;;;;18.04;69.48;101975.78;7393198;19;20022;-64
2023/09/08 06:11:59;;;;;;;10.07;6.70;;;;;;;18.17;69.80;101976.44;7391379;19;20025;-64
2023/09/08 06:14:27;;;;;;;12.02;6.72;;;;;;;18.09;69.95;101962.00;7391260;19;20372;-64
2023/09/08 06:16:54;;;;;;;10.77;6.03;;;;;;;17.91;70.69;101969.78;7392031;19;20014;-64
2023/09/08 06:19:22;;;;;;;11.55;6.35;;;;;;;18.08;70.75;101969.19;7392835;19;20508;-64
2023/09/08 06:21:49;;;;;;;11.60;6.40;;;;;;;18.13;70.63;101966.97;7391896;19;20094;-65
2023/09/08 06:24:17;;;;;;;10.18;6.50;;;;;;;18.16;70.89;101971.19;7390111;19;20021;-65
2023/09/08 06:26:44;;;;;;;13.57;6.10;;;;;;;18.35;70.42;101967.75;7390360;19;20035;-65
2023/09/08 06:29:12;;;;;;;11.57;6.75;;;;;;;18.38;70.49;101968.34;7391937;19;20039;-66
2023/09/08 06:31:39;;;;;;;11.73;6.30;;;;;;;18.39;70.57;101971.88;7391951;19;20015;-65
2023/09/08 06:34:07;;;;;;;9.57;6.32;;;;;;;18.54;70.44;101977.72;7391586;19;20353;-65
2023/09/08 06:36:34;;;;;;;14.07;5.95;;;;;;;18.59;70.19;101983.56;7393680;19;20034;-66
2023/09/08 06:39:03;;;;;;;12.20;6.43;;;;;;;18.62;70.25;101983.28;7391948;19;20445;-65
2023/09/08 06:41:31;;;;;;;11.02;6.07;;;;;;;18.66;70.73;101985.56;7389363;19;20011;-65
2023/09/08 06:43:58;;;;;;;10.95;6.28;;;;;;;18.71;70.37;101979.81;7389502;19;20022;-66
2023/09/08 06:46:26;;;;;;;9.98;5.70;;;;;;;18.72;70.47;101981.50;7391252;19;20022;-65
2023/09/08 06:48:54;;;;;;;10.27;6.25;;;;;;;18.83;70.27;101989.47;7391688;19;20095;-65
2023/09/08 06:51:22;;;;;;;12.02;5.82;;;;;;;18.91;70.50;101983.41;7391590;19;20372;-65
2023/09/08 06:53:57;;;;;;;11.63;6.00;;;;;;;18.93;70.09;101986.81;7389642;19;20018;-65
2023/09/08 06:56:25;;;;;;;11.90;6.32;;;;;;;18.90;70.25;101985.25;7391097;19;20039;-66
2023/09/08 06:58:52;;;;;;;13.50;6.32;;;;;;;18.93;70.20;101990.34;7392624;19;20492;-66
2023/09/08 07:01:20;;;;;;;10.95;6.28;;;;;;;18.97;70.03;101989.09;7390227;19;20077;-66
2023/09/08 07:03:47;;;;;;;11.02;6.40;;;;;;;19.08;70.33;101976.50;7389506;19;20015;-66
2023/09/08 07:06:16;;;;;;;11.77;6.35;;;;;;;19.11;70.07;101979.78;7391932;19;20022;-65
2023/09/08 07:08:43;;;;;;;11.23;6.18;;;;;;;19.12;70.10;101988.69;7391940;19;20022;-65
2023/09/08 07:11:11;;;;;;;10.75;6.20;;;;;;;19.17;70.31;101968.50;7390098;19;20042;-65
2023/09/08 07:13:40;;;;;;;10.80;6.28;;;;;;;19.23;70.41;101976.00;7389305;19;20015;-66
2023/09/08 07:16:08;;;;;;;9.63;5.60;;;;;;;19.35;70.36;101976.72;7390903;19;20025;-65
2023/09/08 07:18:37;;;;;;;10.27;6.30;;;;;;;19.43;70.81;101976.00;7388833;19;20018;-65
2023/09/08 07:21:05;;;;;;;12.88;6.43;;;;;;;19.49;70.69;101970.91;7390515;19;20018;-64
2023/09/08 07:23:32;;;;;;;8.70;5.75;;;;;;;19.56;70.72;101968.50;7390854;19;20504;-65
2023/09/08 07:26:00;;;;;;;11.35;6.47;;;;;;;19.65;70.71;101970.38;7397180;19;20018;-66
2023/09/08 07:28:27;;;;;;;8.75;5.75;;;;;;;19.74;70.23;101978.59;7397380;19;20392;-66
2023/09/08 07:31:01;;;;;;;11.93;6.60;;;;;;;19.85;69.49;101971.22;7396581;19;20375;-65
2023/09/08 07:33:29;;;;;;;12.55;6.03;;;;;;;19.90;69.49;101974.31;7394451;19;20484;-66
2023/09/08 07:35:57;;;;;;;11.90;6.50;;;;;;;20.00;69.59;101977.00;7397864;19;20376;-65
2023/09/08 07:38:25;;;;;;;9.85;6.03;;;;;;;20.08;69.30;101971.72;7395931;19;20421;-66
2023/09/08 07:40:52;;;;;;;9.30;6.00;;;;;;;20.23;68.36;101971.28;7397765;19;20019;-65
2023/09/08 07:43:20;;;;;;;11.43;6.30;;;;;;;20.29;68.05;101974.19;7393950;19;20014;-66
2023/09/08 07:45:47;;;;;;;12.80;6.22;;;;;;;20.36;67.86;101971.78;7396439;19;20369;-65
2023/09/08 07:48:15;;;;;;;11.10;6.03;;;;;;;20.41;67.81;101975.75;7395491;19;20026;-65
2023/09/08 07:50:43;;;;;;;10.23;6.20;;;;;;;20.45;68.45;101968.19;7397453;19;20386;-65
2023/09/08 07:53:10;;;;;;;11.93;6.28;;;;;;;20.49;67.54;101974.13;7396189;19;20023;-65
2023/09/08 07:55:37;;;;;;;12.88;5.82;;;;;;;20.57;67.53;101972.44;7395356;19;20022;-65
2023/09/08 07:58:05;;;;;;;11.85;6.60;;;;;;;20.62;67.10;101972.00;7395519;19;20015;-65
2023/09/08 08:00:33;;;;;;;12.27;5.93;;;;;;;20.68;66.95;101972.25;7396954;19;20014;-65
2023/09/08 08:03:00;;;;;;;10.68;5.70;;;;;;;20.76;66.80;101971.50;7395410;19;20074;-65
2023/09/08 08:05:28;;;;;;;10.85;5.80;;;;;;;20.82;66.23;101970.03;7396307;19;20034;-65
2023/09/08 08:07:56;;;;;;;9.60;5.90;;;;;;;20.87;65.57;101971.31;7397125;19;20026;-65
2023/09/08 08:10:23;;;;;;;11.00;5.78;;;;;;;20.96;65.90;101974.09;7395991;19;20484;-65
2023/09/08 08:12:50;;;;;;;13.85;5.75;;;;;;;;;;7395176;19;20034;-65
2023/09/08 08:15:21;;;;;;;8.90;5.78;;;;;;;21.14;65.50;101977.66;7396690;19;20022;-65
2023/09/08 08:17:49;;;;;;;10.10;5.75;;;;;;;21.18;64.66;101969.13;7395812;19;20011;-65
2023/09/08 08:20:17;;;;;;;10.57;5.78;;;;;;;21.25;63.85;101973.88;7396570;19;20356;-65
2023/09/08 08:22:46;;;;;;;8.60;5.03;;;;;;;21.27;64.06;101970.03;7395661;19;20021;-65
2023/09/08 08:25:14;;;;;;;9.52;5.30;;;;;;;21.27;63.97;101966.50;7395990;19;20019;-65
2023/09/08 08:27:41;;;;;;;9.38;5.40;;;;;;;21.34;63.26;101964.91;7395912;19;20035;-65
2023/09/08 08:30:11;;;;;;;10.52;5.20;;;;;;;21.43;63.65;101969.38;7395812;19;20040;-65
2023/09/08 08:32:38;;;;;;;10.38;5.50;;;;;;;21.51;63.35;101966.75;7395524;19;20021;-65
2023/09/08 08:35:07;;;;;;;13.35;6.35;;;;;;;21.58;63.17;101965.13;7395016;19;20427;-65
2023/09/08 08:37:34;;;;;;;11.63;6.07;;;;;;;21.61;63.48;101962.13;7395621;19;20374;-65
2023/09/08 08:40:03;;;;;;;12.38;5.70;;;;;;;21.59;63.67;101961.41;7393814;19;20014;-65
2023/09/08 08:42:32;;;;;;;9.48;5.18;;;;;;;21.61;63.75;101966.66;7394679;19;20006;-65
2023/09/08 08:45:00;;;;;;;10.25;5.40;;;;;;;21.69;63.72;101964.03;7394292;19;20015;-65
2023/09/08 08:47:29;;;;;;;10.50;5.70;;;;;;;21.74;62.93;101956.31;7394812;19;20019;-65
2023/09/08 08:49:58;;;;;;;11.93;5.38;;;;;;;21.88;62.27;101965.69;7395320;19;20015;-65
2023/09/08 08:52:29;;;;;;;8.82;4.82;;;;;;;21.92;61.73;101963.53;7394014;19;20082;-65
2023/09/08 08:54:57;;;;;;;9.35;4.65;;;;;;;22.00;61.38;101963.59;7396264;19;20535;-65
2023/09/08 08:57:27;;;;;;;14.27;5.18;;;;;;;22.07;61.98;101968.19;7394755;19;20014;-65
2023/09/08 08:59:55;;;;;;;10.25;5.30;;;;;;;22.08;61.37;101953.69;7397697;19;20027;-65
2023/09/08 09:02:25;;;;;;;10.27;5.35;;;;;;;22.21;61.05;101957.84;7395210;19;20080;-65
2023/09/08 09:04:54;;;;;;;10.23;5.55;;;;;;;22.20;61.58;101959.69;7392347;19;20033;-65
2023/09/08 09:07:21;;;;;;;8.85;4.97;;;;;;;22.23;62.43;101953.97;7392656;19;20505;-65
2023/09/08 09:09:49;;;;;;;11.00;5.78;;;;;;;22.22;62.38;101955.00;7394637;19;20495;-65
2023/09/08 09:12:17;;;;;;;10.60;5.68;;;;;;;22.29;61.81;101949.81;7394400;19;20617;-65
2023/09/08 09:14:47;;;;;;;11.20;5.35;;;;;;;22.32;61.63;101960.25;7392177;19;20028;-65
2023/09/08 09:17:15;;;;;;;9.35;5.03;;;;;;;22.28;61.66;101953.50;7392216;19;20011;-65
2023/09/08 09:19:42;;;;;;;12.20;5.30;;;;;;;22.30;61.19;101952.34;7392505;19;20014;-65
2023/09/08 09:22:13;;;;;;;11.82;5.30;;;;;;;22.44;60.93;101947.38;7394581;19;20622;-65
2023/09/08 09:24:44;;;;;;;10.40;5.28;;;;;;;22.56;60.64;101949.59;7392880;19;20046;-64
2023/09/08 09:27:12;;;;;;;11.40;5.18;;;;;;;22.67;60.24;101947.63;7394483;19;20014;-64
2023/09/08 09:29:48;;;;;;;9.93;4.97;;;;;;;22.70;60.18;101949.97;7394139;19;20015;-64
2023/09/08 09:32:22;;;;;;;10.50;4.93;;;;;;;22.71;60.49;101940.88;7392624;19;20038;-64
2023/09/08 09:34:53;;;;;;;9.60;5.13;;;;;;;22.71;60.37;101939.03;7392060;19;20015;-64
2023/09/08 09:37:21;;;;;;;9.75;4.90;;;;;;;22.72;60.04;101939.88;7393491;19;20038;-64
2023/09/08 09:39:53;;;;;;;12.70;5.45;;;;;;;22.89;59.62;101936.19;7391175;19;20504;-64
2023/09/08 09:42:22;;;;;;;10.52;5.03;;;;;;;22.90;60.41;101940.59;7393360;19;20018;-65
2023/09/08 09:44:54;;;;;;;8.32;4.97;;;;;;;22.92;59.50;101941.28;7388816;19;20010;-64
2023/09/08 09:47:22;;;;;;;9.15;5.35;;;;;;;22.91;59.45;101936.91;7389722;19;20018;-64
2023/09/08 09:49:49;;;;;;;10.10;5.07;;;;;;;22.99;59.56;101941.50;7393298;19;20054;-65
2023/09/08 09:52:25;;;;;;;9.13;5.07;;;;;;;23.06;59.24;101932.56;7391338;19;20011;-65
2023/09/08 09:54:54;;;;;;;9.57;4.45;;;;;;;23.17;59.12;101930.56;7390037;19;20018;-64
2023/09/08 09:57:23;;;;;;;7.10;4.57;;;;;;;23.35;57.89;101926.69;7390839;19;20018;-65
2023/09/08 09:59:53;;;;;;;7.97;4.88;;;;;;;23.35;58.89;101925.81;7390709;19;20022;-63
2023/09/08 10:02:21;;;;;;;8.85;5.10;;;;;;;23.51;58.30;101919.59;7392338;19;20024;-63
2023/09/08 10:04:50;;;;;;;8.18;4.70;;;;;;;23.49;58.22;101924.31;7390366;19;20015;-68
2023/09/08 10:07:18;;;;;;;10.07;5.10;;;;;;;23.41;58.22;101922.44;7392271;19;20480;-63
2023/09/08 10:09:47;;;;;;;10.52;5.00;;;;;;;23.31;58.71;101928.03;7392066;19;20015;-63
2023/09/08 10:12:16;;;;;;;8.80;4.80;;;;;;;23.41;58.65;101922.44;7390451;19;20014;-63
2023/09/08 10:14:47;;;;;;;9.38;4.65;;;;;;;23.41;58.31;101925.16;7390055;19;20014;-63
2023/09/08 10:17:24;;;;;;;11.48;5.07;;;;;;;23.46;57.74;101922.78;7390301;19;20018;-63
2023/09/08 10:19:56;;;;;;;8.63;5.10;;;;;;;23.60;57.99;101922.09;7390386;19;20022;-64
2023/09/08 10:22:30;;;;;;;10.38;4.60;;;;;;;23.74;57.41;101917.06;7391317;19;20020;-64
2023/09/08 10:25:03;;;;;;;8.18;4.55;;;;;;;23.66;58.24;101911.59;7392088;19;20031;-64
2023/09/08 10:27:32;;;;;;;8.05;5.10;;;;;;;23.62;58.33;101905.72;7392229;19;20045;-64
2023/09/08 10:30:06;;;;;;;8.60;4.88;;;;;;;23.74;57.40;101911.66;7391428;19;20046;-64
2023/09/08 10:32:35;;;;;;;9.60;4.88;;;;;;;23.76;57.60;101912.31;7391339;19;20014;-64
2023/09/08 10:35:04;;;;;;;9.32;4.50;;;;;;;23.76;57.75;101901.50;7391085;19;20022;-63
2023/09/08 10:37:32;;;;;;;9.15;4.80;;;;;;;23.93;56.91;101897.75;7391390;19;20026;-63
2023/09/08 10:40:24;;;;;;;12.00;5.22;;;;;;;24.25;56.04;101902.22;7389340;19;20504;-63
2023/09/08 10:43:08;;;;;;;9.40;4.68;;;;;;;24.32;56.02;101900.50;7388273;19;20022;-64
2023/09/08 10:45:36;;;;;;;11.07;4.88;;;;;;;24.33;55.54;101893.22;7390965;19;20018;-64
2023/09/08 10:48:06;;;;;;;9.85;5.03;;;;;;;24.45;54.68;101896.41;7391054;19;20029;-64
2023/09/08 10:50:35;;;;;;;10.40;4.65;;;;;;;24.26;55.28;101903.88;7390949;19;20505;-63
2023/09/08 10:53:18;;;;;;;9.52;4.53;;;;;;;24.21;55.75;101897.31;7390546;19;20089;-63
2023/09/08 10:55:53;;;;;;;9.80;4.60;;;;;;;24.30;55.18;101901.69;7391130;19;20484;-63
2023/09/08 10:58:42;;;;;;;13.15;5.00;;;;;;;24.31;55.47;101897.97;7395641;19;20545;-64
2023/09/08 11:01:19;;;;;;;7.57;4.10;;;;;;;24.41;55.36;101895.91;7399422;19;20089;-64
2023/09/08 11:03:49;;;;;;;10.93;4.40;;;;;;;24.60;54.32;101900.06;7396577;19;20022;-64
2023/09/08 11:06:23;;;;;;;8.13;4.60;;;;;;;24.61;54.57;101896.31;7398918;19;20022;-64
2023/09/08 11:08:55;;;;;;;7.82;4.70;;;;;;;24.67;54.47;101906.44;7396771;19;20018;-64
2023/09/08 11:11:25;;;;;;;8.45;4.95;;;;;;;24.73;54.65;101902.19;7398892;19;20042;-63
2023/09/08 11:13:52;;;;;;;9.32;4.88;;;;;;;24.63;54.34;101896.16;7394908;19;20036;-63
2023/09/08 11:16:25;;;;;;;7.10;4.05;;;;;;;24.70;54.45;101892.56;7398361;19;20499;-64
2023/09/08 11:18:52;;;;;;;7.83;4.23;;;;;;;25.02;53.06;101902.31;7397234;19;20014;-64
2023/09/08 11:21:20;;;;;;;7.57;4.22;;;;;;;25.08;52.83;101899.94;7398003;19;20023;-65
2023/09/08 11:23:48;;;;;;;8.75;4.57;;;;;;;24.84;53.28;101890.97;7393693;19;20023;-65
2023/09/08 11:26:16;;;;;;;7.35;4.35;;;;;;;24.92;53.66;101893.59;7396135;19;20050;-64
2023/09/08 11:28:47;;;;;;;9.20;4.43;;;;;;;24.97;53.85;101891.19;7397201;19;20049;-64